createdAt,value
2023-02-16T00:01:20.603Z,21.77
2023-02-16T00:03:47.867Z,21.13
2023-02-16T00:06:16.351Z,21.10
2023-02-16T00:08:48.069Z,20.30
2023-02-16T00:11:46.126Z,18.95
2023-02-16T00:14:13.457Z,22.80
2023-02-16T00:16:40.654Z,22.02
2023-02-16T00:19:17.096Z,21.60
2023-02-16T00:21:44.250Z,21.52
2023-02-16T00:24:11.409Z,23.00
2023-02-16T00:26:38.595Z,19.55
2023-02-16T00:29:05.796Z,18.73
2023-02-16T00:31:33.069Z,19.65
2023-02-16T00:34:03.873Z,18.20
2023-02-16T00:36:31.028Z,18.95
2023-02-16T00:38:58.287Z,22.90
2023-02-16T00:41:44.435Z,19.30
2023-02-16T00:44:17.944Z,20.42
2023-02-16T00:46:45.855Z,19.80
2023-02-16T00:49:16.919Z,18.85
2023-02-16T00:51:44.273Z,21.27
2023-02-16T00:54:11.431Z,23.38
2023-02-16T00:56:38.834Z,18.52
2023-02-16T00:59:08.129Z,22.83
2023-02-16T01:01:36.915Z,20.15
2023-02-16T01:04:06.534Z,19.45
2023-02-16T01:06:52.208Z,19.17
2023-02-16T01:09:39.777Z,18.58
2023-02-16T01:12:11.066Z,18.63
2023-02-16T01:14:38.370Z,15.15
2023-02-16T01:17:05.625Z,20.75
2023-02-16T01:19:32.879Z,18.02
2023-02-16T01:22:00.012Z,17.38
2023-02-16T01:24:27.134Z,15.13
2023-02-16T01:26:54.334Z,15.85
2023-02-16T01:29:22.395Z,18.55
2023-02-16T01:31:49.704Z,16.73
2023-02-16T01:34:16.987Z,14.77
2023-02-16T01:36:45.154Z,18.90
2023-02-16T01:39:13.254Z,15.70
2023-02-16T01:41:49.228Z,13.63
2023-02-16T01:44:18.546Z,13.80
2023-02-16T01:46:53.460Z,11.05
2023-02-16T01:49:21.905Z,13.90
2023-02-16T01:51:58.118Z,15.43
2023-02-16T01:54:37.407Z,12.60
2023-02-16T01:57:06.703Z,12.63
2023-02-16T01:59:41.406Z,11.57
2023-02-16T02:02:15.122Z,12.75
2023-02-16T02:05:09.682Z,13.77
2023-02-16T02:07:49.034Z,16.20
2023-02-16T02:10:16.252Z,13.40
2023-02-16T02:12:46.424Z,12.98
2023-02-16T02:15:15.734Z,15.75
2023-02-16T02:17:42.919Z,12.95
2023-02-16T02:20:12.883Z,14.02
2023-02-16T02:23:10.549Z,16.40
2023-02-16T02:25:37.734Z,13.73
2023-02-16T02:28:24.027Z,13.70
2023-02-16T02:30:51.325Z,15.05
2023-02-16T02:33:27.336Z,12.60
2023-02-16T02:36:03.773Z,14.68
2023-02-16T02:38:33.961Z,13.65
2023-02-16T02:41:19.705Z,13.32
2023-02-16T02:43:51.425Z,14.55
2023-02-16T02:46:27.008Z,13.20
2023-02-16T02:48:54.520Z,16.70
2023-02-16T02:51:31.062Z,15.82
2023-02-16T02:54:40.027Z,15.98
2023-02-16T02:57:38.416Z,17.92
2023-02-16T03:00:44.315Z,13.25
2023-02-16T03:03:30.549Z,17.73
2023-02-16T03:06:19.145Z,16.10
2023-02-16T03:08:48.218Z,14.98
2023-02-16T03:11:39.277Z,15.88
2023-02-16T03:14:09.448Z,15.98
2023-02-16T03:16:42.687Z,15.18
2023-02-16T03:19:30.002Z,17.88
2023-02-16T03:22:16.570Z,14.18
2023-02-16T03:25:02.708Z,15.95
2023-02-16T03:27:51.158Z,13.80
2023-02-16T03:30:19.310Z,15.27
2023-02-16T03:32:46.973Z,12.55
2023-02-16T03:35:14.233Z,12.43
2023-02-16T03:37:42.127Z,13.00
2023-02-16T03:40:29.483Z,13.65
2023-02-16T03:42:58.147Z,12.40
2023-02-16T03:45:25.884Z,14.23
2023-02-16T03:47:53.406Z,16.10
2023-02-16T03:50:20.595Z,12.48
2023-02-16T03:52:48.077Z,14.30
2023-02-16T03:55:15.365Z,13.63
2023-02-16T03:57:42.540Z,13.15
2023-02-16T04:00:09.924Z,16.02
2023-02-16T04:02:37.073Z,13.68
2023-02-16T04:05:04.285Z,11.80
2023-02-16T04:07:31.926Z,16.80
2023-02-16T04:09:59.134Z,13.43
2023-02-16T04:12:38.411Z,11.90
2023-02-16T04:15:08.226Z,14.07
2023-02-16T04:17:35.443Z,14.75
2023-02-16T04:20:02.640Z,14.05
2023-02-16T04:22:30.296Z,13.52
2023-02-16T04:24:57.431Z,14.43
2023-02-16T04:27:24.658Z,15.07
2023-02-16T04:29:52.038Z,14.85
2023-02-16T04:32:19.316Z,15.15
2023-02-16T04:34:46.528Z,16.65
2023-02-16T04:37:13.697Z,16.70
2023-02-16T04:39:40.853Z,12.25
2023-02-16T04:42:07.993Z,14.00
2023-02-16T04:44:35.297Z,12.15
2023-02-16T04:47:02.498Z,13.35
2023-02-16T04:49:29.674Z,13.27
2023-02-16T04:51:56.894Z,13.48
2023-02-16T04:54:24.014Z,12.95
2023-02-16T04:56:51.180Z,11.80
2023-02-16T04:59:18.386Z,12.48
2023-02-16T05:01:45.569Z,11.55
2023-02-16T05:04:12.778Z,12.10
2023-02-16T05:06:40.203Z,14.38
2023-02-16T05:09:07.892Z,14.52
2023-02-16T05:11:54.406Z,13.48
2023-02-16T05:14:44.645Z,12.32
2023-02-16T05:17:14.032Z,13.45
2023-02-16T05:19:41.605Z,11.50
2023-02-16T05:22:09.368Z,13.27
2023-02-16T05:24:36.864Z,10.45
2023-02-16T05:27:05.274Z,15.43
2023-02-16T05:29:32.487Z,11.48
2023-02-16T05:32:01.432Z,12.05
2023-02-16T05:34:29.725Z,14.02
2023-02-16T05:36:56.886Z,14.57
2023-02-16T05:39:24.439Z,12.45
2023-02-16T05:41:51.838Z,11.75
2023-02-16T05:44:19.150Z,12.23
2023-02-16T05:46:46.659Z,11.98
2023-02-16T05:49:14.377Z,10.93
2023-02-16T05:51:42.127Z,11.63
2023-02-16T05:54:10.977Z,12.77
2023-02-16T05:56:38.120Z,10.15
2023-02-16T05:59:05.304Z,10.15
2023-02-16T06:01:32.469Z,11.35
2023-02-16T06:03:59.645Z,11.63
2023-02-16T06:06:26.898Z,13.65
2023-02-16T06:08:54.044Z,11.63
2023-02-16T06:11:36.542Z,9.30
2023-02-16T06:14:04.867Z,13.95
2023-02-16T06:16:32.786Z,12.65
2023-02-16T06:19:00.563Z,10.90
2023-02-16T06:21:28.014Z,10.48
2023-02-16T06:23:55.495Z,11.13
2023-02-16T06:26:22.864Z,11.07
2023-02-16T06:28:50.066Z,10.40
2023-02-16T06:31:17.497Z,9.38
2023-02-16T06:33:44.807Z,11.25
2023-02-16T06:36:12.730Z,11.52
2023-02-16T06:38:39.899Z,12.68
2023-02-16T06:41:07.701Z,13.18
2023-02-16T06:43:34.911Z,11.43
2023-02-16T06:46:02.175Z,15.05
2023-02-16T06:48:29.386Z,14.80
2023-02-16T06:50:56.584Z,18.38
2023-02-16T06:53:25.416Z,17.77
2023-02-16T06:55:52.786Z,19.83
2023-02-16T06:58:20.178Z,16.60
2023-02-16T07:00:47.456Z,15.23
2023-02-16T07:03:14.666Z,17.27
2023-02-16T07:05:44.044Z,17.70
2023-02-16T07:08:11.251Z,13.90
2023-02-16T07:10:49.485Z,13.82
2023-02-16T07:13:17.184Z,13.73
2023-02-16T07:15:44.868Z,11.55
2023-02-16T07:18:15.481Z,13.40
2023-02-16T07:20:42.649Z,14.48
2023-02-16T07:23:09.851Z,14.05
2023-02-16T07:25:37.311Z,16.45
2023-02-16T07:28:04.765Z,15.07
2023-02-16T07:30:32.247Z,13.20
2023-02-16T07:32:59.857Z,13.75
2023-02-16T07:35:27.364Z,9.95
2023-02-16T07:37:54.773Z,11.90
2023-02-16T07:40:21.979Z,11.95
2023-02-16T07:42:49.105Z,16.50
2023-02-16T07:45:16.256Z,15.68
2023-02-16T07:47:43.406Z,12.57
2023-02-16T07:50:10.989Z,11.75
2023-02-16T07:52:38.188Z,9.95
2023-02-16T07:55:05.433Z,10.15
2023-02-16T07:57:32.613Z,12.55
2023-02-16T07:59:59.806Z,10.18
2023-02-16T08:02:27.521Z,11.77
2023-02-16T08:04:54.854Z,9.65
2023-02-16T08:07:22.395Z,13.02
2023-02-16T08:09:49.708Z,11.70
2023-02-16T08:12:17.937Z,11.85
2023-02-16T08:14:46.690Z,13.80
2023-02-16T08:17:14.280Z,9.05
2023-02-16T08:19:41.516Z,11.15
2023-02-16T08:22:09.290Z,11.52
2023-02-16T08:24:37.479Z,10.00
2023-02-16T08:27:05.896Z,13.20
2023-02-16T08:29:34.061Z,11.48
2023-02-16T08:32:01.501Z,10.85
2023-02-16T08:34:30.624Z,13.10
2023-02-16T08:36:58.110Z,13.15
2023-02-16T08:39:26.994Z,11.45
2023-02-16T08:41:54.887Z,12.55
2023-02-16T08:44:23.706Z,9.68
2023-02-16T08:46:52.219Z,9.32
2023-02-16T08:49:20.097Z,11.93
2023-02-16T08:51:48.252Z,11.65
2023-02-16T08:54:16.941Z,11.55
2023-02-16T08:56:47.069Z,10.82
2023-02-16T08:59:18.542Z,12.80
2023-02-16T09:01:46.124Z,10.55
2023-02-16T09:04:13.923Z,9.90
2023-02-16T09:06:42.547Z,10.00
2023-02-16T09:09:10.125Z,11.15
2023-02-16T09:11:37.510Z,12.55
2023-02-16T09:14:05.112Z,10.57
2023-02-16T09:16:38.496Z,11.15
2023-02-16T09:19:08.428Z,11.90
2023-02-16T09:21:35.580Z,11.75
2023-02-16T09:24:03.742Z,11.80
2023-02-16T09:26:35.483Z,19.90
2023-02-16T09:29:02.599Z,11.45
2023-02-16T09:31:31.430Z,10.45
2023-02-16T09:34:04.002Z,11.77
2023-02-16T09:36:31.995Z,18.75
2023-02-16T09:38:59.581Z,15.20
2023-02-16T09:41:42.468Z,13.75
2023-02-16T09:44:09.879Z,11.50
2023-02-16T09:46:38.143Z,10.02
2023-02-16T09:49:06.324Z,13.27
2023-02-16T09:51:37.904Z,21.30
2023-02-16T09:54:23.422Z,15.82
2023-02-16T09:56:55.188Z,13.13
2023-02-16T09:59:36.542Z,11.70
2023-02-16T10:02:27.024Z,14.40
2023-02-16T10:05:13.334Z,17.08
2023-02-16T10:07:47.865Z,10.18
2023-02-16T10:10:16.824Z,11.48
2023-02-16T10:12:48.953Z,11.02
2023-02-16T10:15:20.144Z,13.10
2023-02-16T10:17:49.594Z,13.82
2023-02-16T10:20:32.802Z,14.43
2023-02-16T10:23:19.038Z,11.52
2023-02-16T10:25:56.571Z,15.88
2023-02-16T10:28:35.374Z,13.18
2023-02-16T10:31:12.280Z,14.07
2023-02-16T10:33:46.795Z,17.73
2023-02-16T10:36:32.952Z,12.75
2023-02-16T10:39:14.905Z,9.93
2023-02-16T10:41:45.220Z,13.57
2023-02-16T10:44:41.582Z,12.02
2023-02-16T10:47:13.639Z,14.00
2023-02-16T10:49:40.851Z,12.52
2023-02-16T10:52:08.459Z,15.18
2023-02-16T10:54:36.746Z,16.58
2023-02-16T10:57:05.497Z,15.60
2023-02-16T10:59:41.221Z,14.07
2023-02-16T11:02:24.477Z,12.77
2023-02-16T11:04:53.773Z,11.65
2023-02-16T11:07:22.897Z,12.02
2023-02-16T11:09:53.817Z,18.40
2023-02-16T11:12:24.395Z,11.98
2023-02-16T11:14:53.091Z,11.57
2023-02-16T11:17:21.452Z,15.75
2023-02-16T11:19:57.830Z,10.20
2023-02-16T11:22:31.288Z,12.27
2023-02-16T11:25:13.919Z,10.85
2023-02-16T11:27:50.624Z,9.18
2023-02-16T11:30:22.642Z,8.90
2023-02-16T11:32:51.347Z,10.95
2023-02-16T11:35:18.980Z,11.80
2023-02-16T11:37:47.857Z,13.60
2023-02-16T11:40:23.816Z,9.07
2023-02-16T11:42:58.911Z,12.38
2023-02-16T11:45:31.234Z,11.13
2023-02-16T11:48:00.972Z,10.32
2023-02-16T11:50:30.320Z,10.20
2023-02-16T11:53:04.002Z,10.50
2023-02-16T11:55:36.114Z,12.80
2023-02-16T11:58:15.520Z,10.20
2023-02-16T12:00:45.675Z,12.02
2023-02-16T12:03:42.208Z,10.70
2023-02-16T12:06:15.217Z,9.88
2023-02-16T12:09:01.450Z,10.43
2023-02-16T12:11:47.190Z,10.07
2023-02-16T12:14:21.036Z,8.88
2023-02-16T12:16:53.223Z,9.93
2023-02-16T12:19:24.227Z,8.77
2023-02-16T12:21:58.920Z,8.65
2023-02-16T12:24:49.106Z,8.82
2023-02-16T12:27:26.812Z,11.13
2023-02-16T12:30:01.873Z,8.82
2023-02-16T12:32:42.436Z,9.38
2023-02-16T12:35:19.048Z,11.00
2023-02-16T12:37:52.487Z,12.27
2023-02-16T12:40:24.811Z,7.30
2023-02-16T12:42:58.104Z,9.32
2023-02-16T12:45:28.501Z,6.43
2023-02-16T12:48:01.873Z,9.40
2023-02-16T12:50:30.503Z,12.95
2023-02-16T12:53:04.153Z,7.40
2023-02-16T12:55:40.361Z,10.52
2023-02-16T12:58:16.860Z,9.63
2023-02-16T13:00:48.594Z,7.70
2023-02-16T13:03:21.658Z,8.35
2023-02-16T13:06:03.014Z,14.85
2023-02-16T13:08:30.424Z,8.32
2023-02-16T13:11:05.924Z,10.32
2023-02-16T13:13:35.382Z,12.90
2023-02-16T13:16:12.876Z,15.25
2023-02-16T13:18:49.118Z,6.55
2023-02-16T13:21:49.036Z,8.40
2023-02-16T13:24:17.929Z,8.48
2023-02-16T13:27:05.169Z,9.63
2023-02-16T13:29:47.698Z,12.65
2023-02-16T13:32:28.402Z,12.18
2023-02-16T13:34:58.308Z,8.45
2023-02-16T13:37:44.190Z,9.80
2023-02-16T13:40:23.629Z,10.05
2023-02-16T13:43:20.378Z,8.77
2023-02-16T13:45:48.637Z,8.50
2023-02-16T13:48:17.431Z,10.65
2023-02-16T13:50:45.435Z,9.68
2023-02-16T13:53:20.562Z,10.40
2023-02-16T13:55:50.683Z,10.55
2023-02-16T13:58:18.117Z,9.27
2023-02-16T14:00:47.674Z,10.32
2023-02-16T14:03:18.844Z,10.35
2023-02-16T14:05:47.883Z,10.48
2023-02-16T14:08:16.904Z,12.57
2023-02-16T14:10:53.490Z,8.88
2023-02-16T14:13:24.162Z,9.13
2023-02-16T14:15:52.626Z,7.93
2023-02-16T14:18:32.720Z,9.70
2023-02-16T14:21:04.888Z,10.10
2023-02-16T14:23:34.921Z,6.30
2023-02-16T14:26:03.698Z,9.15
2023-02-16T14:28:31.057Z,7.47
2023-02-16T14:31:03.147Z,10.75
2023-02-16T14:33:39.544Z,7.38
2023-02-16T14:36:27.660Z,9.55
2023-02-16T14:42:29.444Z,8.50
2023-02-16T14:45:17.677Z,8.63
2023-02-16T14:47:59.149Z,9.02
2023-02-16T14:50:36.240Z,7.65
2023-02-16T14:53:09.534Z,7.78
2023-02-16T14:55:46.125Z,6.47
2023-02-16T14:58:13.238Z,8.05
2023-02-16T15:00:49.946Z,6.93
2023-02-16T15:03:23.256Z,8.88
2023-02-16T15:05:58.685Z,7.82
2023-02-16T15:08:34.735Z,6.28
2023-02-16T15:11:16.063Z,8.10
2023-02-16T15:13:44.244Z,6.53
2023-02-16T15:16:15.485Z,6.88
2023-02-16T15:19:02.878Z,9.10
2023-02-16T15:21:30.824Z,6.32
2023-02-16T15:23:59.199Z,7.88
2023-02-16T15:26:28.011Z,5.90
2023-02-16T15:28:56.798Z,10.13
2023-02-16T15:31:35.303Z,8.07
2023-02-16T15:34:07.398Z,7.55
2023-02-16T15:36:35.355Z,6.82
2023-02-16T15:39:05.127Z,8.30
2023-02-16T15:41:32.245Z,6.75
2023-02-16T15:43:59.958Z,7.68
2023-02-16T15:46:30.824Z,7.70
2023-02-16T15:48:58.227Z,11.15
2023-02-16T15:51:25.382Z,5.97
2023-02-16T15:53:55.926Z,7.40
2023-02-16T15:56:47.256Z,5.28
2023-02-16T15:59:21.107Z,5.47
2023-02-16T16:01:54.216Z,5.25
2023-02-16T16:04:22.591Z,6.05
2023-02-16T16:06:52.546Z,8.98
2023-02-16T16:09:27.737Z,5.53
2023-02-16T16:11:56.468Z,6.30
2023-02-16T16:14:24.351Z,10.18
2023-02-16T16:16:54.851Z,5.50
2023-02-16T16:19:33.759Z,7.07
2023-02-16T16:22:01.376Z,4.75
2023-02-16T16:24:33.856Z,7.82
2023-02-16T16:27:03.389Z,6.70
2023-02-16T16:29:36.647Z,6.47
2023-02-16T16:32:05.334Z,7.13
2023-02-16T16:34:33.820Z,18.42
2023-02-16T16:37:03.782Z,6.72
2023-02-16T16:39:32.258Z,7.70
2023-02-16T16:42:08.605Z,7.15
2023-02-16T16:44:40.138Z,9.57
2023-02-16T16:47:13.409Z,6.22
2023-02-16T16:49:49.334Z,8.27
2023-02-16T16:52:29.687Z,5.78
2023-02-16T16:54:56.829Z,7.05
2023-02-16T16:57:24.307Z,11.18
2023-02-16T16:59:51.845Z,10.48
2023-02-16T17:02:19.289Z,7.05
2023-02-16T17:04:46.430Z,10.10
2023-02-16T17:07:13.619Z,10.68
2023-02-16T17:09:40.767Z,11.55
2023-02-16T17:12:09.715Z,9.20
2023-02-16T17:14:36.845Z,6.05
2023-02-16T17:17:06.073Z,10.48
2023-02-16T17:19:33.263Z,9.05
2023-02-16T17:22:00.608Z,6.35
2023-02-16T17:24:27.801Z,8.10
2023-02-16T17:26:54.989Z,6.65
2023-02-16T17:29:22.700Z,9.38
2023-02-16T17:31:50.744Z,7.80
2023-02-16T17:34:18.002Z,6.70
2023-02-16T17:36:45.422Z,9.82
2023-02-16T17:39:12.567Z,6.93
2023-02-16T17:41:39.765Z,7.55
2023-02-16T17:44:06.926Z,11.98
2023-02-16T17:46:34.105Z,8.73
2023-02-16T17:49:01.320Z,9.60
2023-02-16T17:51:30.323Z,7.53
2023-02-16T17:53:57.452Z,14.60
2023-02-16T17:56:25.514Z,7.43
2023-02-16T17:58:53.082Z,7.47
2023-02-16T18:01:21.046Z,8.10
2023-02-16T18:03:48.439Z,11.48
2023-02-16T18:06:17.093Z,12.50
2023-02-16T18:08:44.722Z,7.75
2023-02-16T18:11:12.243Z,10.60
2023-02-16T18:13:39.666Z,11.57
2023-02-16T18:16:08.175Z,14.18
2023-02-16T18:18:36.823Z,9.93
2023-02-16T18:21:04.267Z,12.02
2023-02-16T18:23:31.483Z,10.85
2023-02-16T18:25:58.689Z,15.80
2023-02-16T18:28:27.845Z,12.68
2023-02-16T18:30:55.144Z,13.25
2023-02-16T18:33:22.447Z,10.05
2023-02-16T18:35:51.695Z,9.18
2023-02-16T18:38:21.871Z,9.00
2023-02-16T18:40:49.270Z,9.27
2023-02-16T18:43:16.470Z,9.10
2023-02-16T18:45:43.823Z,11.40
2023-02-16T18:48:11.072Z,10.43
2023-02-16T18:50:38.252Z,8.77
2023-02-16T18:53:05.884Z,11.75
2023-02-16T18:55:33.458Z,16.55
2023-02-16T18:58:07.800Z,25.38
2023-02-16T19:00:35.332Z,13.73
2023-02-16T19:03:03.004Z,15.15
2023-02-16T19:05:30.232Z,9.40
2023-02-16T19:07:57.712Z,7.40
2023-02-16T19:10:25.191Z,17.38
2023-02-16T19:12:52.350Z,15.15
2023-02-16T19:15:19.633Z,16.10
2023-02-16T19:17:46.784Z,14.63
2023-02-16T19:20:18.530Z,12.70
2023-02-16T19:22:49.300Z,13.80
2023-02-16T19:25:16.612Z,11.43
2023-02-16T19:27:44.170Z,14.38
2023-02-16T19:30:12.070Z,12.20
2023-02-16T19:32:41.054Z,9.40
2023-02-16T19:35:12.447Z,13.52
2023-02-16T19:37:40.063Z,11.18
2023-02-16T19:40:08.595Z,11.68
2023-02-16T19:42:35.912Z,13.95
2023-02-16T19:45:03.436Z,16.90
2023-02-16T19:47:30.568Z,19.67
2023-02-16T19:49:57.842Z,15.93
2023-02-16T19:52:24.975Z,16.23
2023-02-16T19:54:52.156Z,14.15
2023-02-16T19:57:19.332Z,14.25
2023-02-16T19:59:46.580Z,19.23
2023-02-16T20:02:15.435Z,18.17
2023-02-16T20:04:43.185Z,16.48
2023-02-16T20:07:10.314Z,17.95
2023-02-16T20:09:37.523Z,18.58
2023-02-16T20:12:05.013Z,16.63
2023-02-16T20:14:32.207Z,14.73
2023-02-16T20:16:59.479Z,14.82
2023-02-16T20:19:26.640Z,15.57
2023-02-16T20:21:53.903Z,14.65
2023-02-16T20:24:21.995Z,17.08
2023-02-16T20:26:51.927Z,17.23
2023-02-16T20:29:20.721Z,17.20
2023-02-16T20:31:50.677Z,17.80
2023-02-16T20:34:17.979Z,16.30
2023-02-16T20:36:45.263Z,15.20
2023-02-16T20:39:12.492Z,14.15
2023-02-16T20:41:40.859Z,17.58
2023-02-16T20:44:08.048Z,12.32
2023-02-16T20:46:35.429Z,13.75
2023-02-16T20:49:03.399Z,13.27
2023-02-16T20:51:30.794Z,14.43
2023-02-16T20:54:00.265Z,13.00
2023-02-16T20:56:28.077Z,20.33
2023-02-16T20:58:56.826Z,20.48
2023-02-16T21:01:37.215Z,15.80
2023-02-16T21:04:04.985Z,17.20
2023-02-16T21:06:32.152Z,15.93
2023-02-16T21:08:59.316Z,11.57
2023-02-16T21:11:27.202Z,17.20
2023-02-16T21:13:54.762Z,15.48
2023-02-16T21:16:22.372Z,13.93
2023-02-16T21:18:50.001Z,14.02
2023-02-16T21:21:17.236Z,21.25
2023-02-16T21:23:48.154Z,12.77
2023-02-16T21:26:15.487Z,16.63
2023-02-16T21:28:42.730Z,14.30
2023-02-16T21:31:12.320Z,17.38
2023-02-16T21:33:39.576Z,16.25
2023-02-16T21:36:14.185Z,9.55
2023-02-16T21:38:42.035Z,14.82
2023-02-16T21:41:24.964Z,14.30
2023-02-16T21:43:59.292Z,12.13
2023-02-16T21:46:26.943Z,14.55
2023-02-16T21:48:55.207Z,11.55
2023-02-16T21:51:24.362Z,9.95
2023-02-16T21:53:51.939Z,10.68
2023-02-16T21:56:30.570Z,9.82
2023-02-16T21:58:58.298Z,12.13
2023-02-16T22:01:30.145Z,14.23
2023-02-16T22:03:59.381Z,11.23
2023-02-16T22:06:27.816Z,13.57
2023-02-16T22:08:55.676Z,16.25
2023-02-16T22:11:22.926Z,15.10
2023-02-16T22:13:53.723Z,16.33
2023-02-16T22:16:20.969Z,15.02
2023-02-16T22:18:48.983Z,16.58
2023-02-16T22:21:16.541Z,14.68
2023-02-16T22:23:43.739Z,15.82
2023-02-16T22:26:20.057Z,10.60
2023-02-16T22:28:47.615Z,11.65
2023-02-16T22:31:14.819Z,11.85
2023-02-16T22:33:41.990Z,14.48
2023-02-16T22:36:13.755Z,13.35
2023-02-16T22:38:41.725Z,9.60
2023-02-16T22:41:10.226Z,8.23
2023-02-16T22:43:37.963Z,10.27
2023-02-16T22:46:06.790Z,9.75
2023-02-16T22:48:34.561Z,9.27
2023-02-16T22:51:02.709Z,17.00
2023-02-16T22:53:29.945Z,5.97
2023-02-16T22:55:57.106Z,9.30
2023-02-16T22:58:24.301Z,7.95
2023-02-16T23:00:51.798Z,9.63
2023-02-16T23:03:19.215Z,7.35
2023-02-16T23:05:46.901Z,7.60
2023-02-16T23:08:14.196Z,6.20
2023-02-16T23:10:41.885Z,5.78
2023-02-16T23:13:09.659Z,8.30
2023-02-16T23:15:37.012Z,9.80
2023-02-16T23:18:04.432Z,6.55
2023-02-16T23:20:31.562Z,8.45
2023-02-16T23:22:58.908Z,8.55
2023-02-16T23:25:35.399Z,6.78
2023-02-16T23:28:03.363Z,6.15
2023-02-16T23:30:31.044Z,9.68
2023-02-16T23:32:58.255Z,6.43
2023-02-16T23:35:25.384Z,6.90
2023-02-16T23:37:52.561Z,9.10
2023-02-16T23:40:19.760Z,9.02
2023-02-16T23:42:48.181Z,7.72
2023-02-16T23:45:15.290Z,7.55
2023-02-16T23:47:42.426Z,9.32
2023-02-16T23:50:09.656Z,7.50
2023-02-16T23:52:36.779Z,7.82
2023-02-16T23:55:04.079Z,7.97
2023-02-16T23:57:31.210Z,7.40
2023-02-16T23:59:58.359Z,7.88
